aviador You're here:

VNKT Decoded Metar

KATHMANDU in NEPAL
Report Time2014-10-01 21:50:00
UTC Time2014-10-01 22:18:05
Flight Rules vfr VFR
WindCalm
Visibility8000 m
Phenomena:N/A
Clouds:Few 020 Hf
Expected CloudBase > 400 ft AGL from Temp-Dew spread
CeilingNone
Temp16°C (ISA +10)
Dew Point15°C (94% RH)
QNH1019 hPa
Density Alt5,564 ft
Elevation4,386 ft
Report Wrong Elevation
Raw Report
METAR VNKT 012150Z 00000KT 8000 FEW020 16/15 Q1019 NOSIG=

Flight School in Barcelona

Extra information for VNKT:More info

Metar Taf Metar & Taf Last 4 Metars F.Rules Stats Wind Profile Meteogram Temp Stats Airport Information Weather charts Add Link Nearby VenuesMetar ALERT Operation Metar Decoded Social comments